createdAt,value
2019-02-27T00:03:05.413Z,76.85
2019-02-27T00:08:26.795Z,75.46
2019-02-27T00:13:45.190Z,74.64
2019-02-27T00:19:03.832Z,76.60
2019-02-27T00:24:22.315Z,76.13
2019-02-27T00:29:40.950Z,77.20
2019-02-27T00:34:59.636Z,79.78
2019-02-27T00:40:18.173Z,82.16
2019-02-27T00:45:39.675Z,81.32
2019-02-27T00:50:56.984Z,82.20
2019-02-27T00:56:15.474Z,82.31
2019-02-27T01:01:34.325Z,81.34
2019-02-27T01:06:52.941Z,81.07
2019-02-27T01:12:11.492Z,79.15
2019-02-27T01:17:30.018Z,77.58
2019-02-27T01:22:48.521Z,78.11
2019-02-27T01:28:10.860Z,78.51
2019-02-27T01:33:27.482Z,77.13
2019-02-27T01:38:46.472Z,76.86
2019-02-27T01:44:05.078Z,77.16
2019-02-27T01:49:23.561Z,77.51
2019-02-27T01:54:42.176Z,77.71
2019-02-27T02:00:00.845Z,76.98
2019-02-27T02:05:19.791Z,75.29
2019-02-27T02:10:38.355Z,74.72
2019-02-27T02:16:05.671Z,73.87
2019-02-27T02:21:27.209Z,74.25
2019-02-27T02:27:21.850Z,75.37
2019-02-27T02:32:58.476Z,76.33
2019-02-27T02:50:47.471Z,78.36
2019-02-27T02:56:32.059Z,78.08
2019-02-27T03:01:53.610Z,78.40
2019-02-27T03:07:20.636Z,78.41
2019-02-27T03:12:51.197Z,79.79
2019-02-27T03:18:18.654Z,80.85
2019-02-27T03:24:13.305Z,83.44
2019-02-27T03:29:59.037Z,83.94
2019-02-27T03:35:29.227Z,83.37
2019-02-27T03:40:55.307Z,83.22
2019-02-27T03:46:22.704Z,83.25
2019-02-27T03:52:00.478Z,82.09
2019-02-27T03:57:22.400Z,82.09
2019-02-27T04:02:49.932Z,83.07
2019-02-27T04:08:17.059Z,81.89
2019-02-27T04:13:35.618Z,82.45
2019-02-27T04:18:54.237Z,84.22
2019-02-27T04:24:12.775Z,85.37
2019-02-27T04:29:31.347Z,84.55
2019-02-27T04:34:49.819Z,83.54
2019-02-27T04:40:11.065Z,83.21
2019-02-27T04:45:29.195Z,84.71
2019-02-27T04:50:47.763Z,85.43
2019-02-27T04:56:06.375Z,84.46
2019-02-27T05:01:24.987Z,84.73
2019-02-27T05:06:46.813Z,85.48
2019-02-27T05:12:06.515Z,84.47
2019-02-27T05:17:25.207Z,85.79
2019-02-27T05:22:43.831Z,85.11
2019-02-27T05:28:02.333Z,82.78
2019-02-27T05:33:21.139Z,82.22
2019-02-27T05:38:46.420Z,81.85
2019-02-27T05:44:05.022Z,79.68
2019-02-27T05:49:26.635Z,79.51
2019-02-27T05:54:43.793Z,78.97
2019-02-27T06:00:03.442Z,79.26
2019-02-27T06:05:23.785Z,78.34
2019-02-27T06:10:42.654Z,76.76
2019-02-27T06:16:03.829Z,76.51
2019-02-27T06:21:21.647Z,77.54
2019-02-27T06:26:40.239Z,76.12
2019-02-27T06:31:59.138Z,74.56
2019-02-27T06:37:17.806Z,76.22
2019-02-27T06:42:36.505Z,77.29
2019-02-27T06:47:55.140Z,76.16
2019-02-27T06:53:16.439Z,74.51
2019-02-27T06:58:34.034Z,74.49
2019-02-27T07:03:52.609Z,75.12
2019-02-27T07:09:12.187Z,73.45
2019-02-27T07:14:30.759Z,66.11
2019-02-27T07:19:50.347Z,54.40
2019-02-27T07:25:11.438Z,52.94
2019-02-27T07:30:30.079Z,46.71
2019-02-27T07:35:48.766Z,48.31
2019-02-27T07:41:07.423Z,42.31
2019-02-27T07:46:26.059Z,41.39
2019-02-27T07:51:44.682Z,36.27
2019-02-27T07:57:03.308Z,37.15
2019-02-27T08:02:22.243Z,38.57
2019-02-27T08:07:40.879Z,35.92
2019-02-27T08:12:59.508Z,32.85
2019-02-27T08:18:23.143Z,39.89
2019-02-27T08:23:38.564Z,35.48
2019-02-27T08:28:57.142Z,35.13
2019-02-27T08:34:15.774Z,32.76
2019-02-27T08:39:34.408Z,27.68
2019-02-27T08:44:53.411Z,28.75
2019-02-27T08:50:17.562Z,25.59
2019-02-27T08:55:39.016Z,24.92
2019-02-27T09:00:56.584Z,26.49
2019-02-27T09:06:18.409Z,25.75
2019-02-27T09:11:37.208Z,25.79
2019-02-27T09:16:56.188Z,27.93
2019-02-27T09:22:15.162Z,26.85
2019-02-27T09:27:35.302Z,26.17
2019-02-27T09:32:54.000Z,25.11
2019-02-27T09:38:12.490Z,27.43
2019-02-27T09:43:32.323Z,26.91
2019-02-27T09:48:51.086Z,29.81
2019-02-27T09:54:11.038Z,28.71
2019-02-27T09:59:30.029Z,29.09
2019-02-27T10:04:48.675Z,29.00
2019-02-27T10:10:10.409Z,27.65
2019-02-27T10:15:28.962Z,26.32
2019-02-27T10:20:47.504Z,26.75
2019-02-27T10:26:06.130Z,26.46
2019-02-27T10:31:25.897Z,26.99
2019-02-27T10:36:47.583Z,29.11
2019-02-27T10:42:06.267Z,28.55
2019-02-27T10:47:24.873Z,25.00
2019-02-27T10:52:43.489Z,25.83
2019-02-27T10:58:02.057Z,25.68
2019-02-27T11:03:25.929Z,27.06
2019-02-27T11:08:40.959Z,27.66
2019-02-27T11:13:59.469Z,27.21
2019-02-27T11:19:18.109Z,27.44
2019-02-27T11:24:37.005Z,25.98
2019-02-27T11:29:59.638Z,27.60
2019-02-27T11:35:15.911Z,25.71
2019-02-27T11:40:34.532Z,25.72
2019-02-27T11:45:57.523Z,26.75
2019-02-27T11:51:14.009Z,25.63
2019-02-27T11:56:32.985Z,26.10
2019-02-27T12:01:55.359Z,26.24
2019-02-27T12:07:12.337Z,25.83
2019-02-27T12:12:30.945Z,25.87
2019-02-27T12:17:49.906Z,26.81
2019-02-27T12:23:10.124Z,26.67
2019-02-27T12:28:28.803Z,26.27
2019-02-27T12:33:47.425Z,27.56
2019-02-27T12:39:07.256Z,26.51
2019-02-27T12:44:25.881Z,26.45
2019-02-27T12:49:44.425Z,26.78
2019-02-27T12:55:03.051Z,26.50
2019-02-27T13:00:32.830Z,29.10
2019-02-27T13:05:51.441Z,26.84
2019-02-27T13:11:09.978Z,28.89
2019-02-27T13:16:28.599Z,25.57
2019-02-27T13:21:47.475Z,27.38
2019-02-27T13:27:08.976Z,27.03
2019-02-27T13:32:27.512Z,25.18
2019-02-27T13:37:46.328Z,25.22
2019-02-27T13:43:06.611Z,26.40
2019-02-27T13:48:25.211Z,26.24
2019-02-27T13:53:44.844Z,25.62
2019-02-27T13:59:03.828Z,26.37
2019-02-27T14:04:22.774Z,28.01
2019-02-27T14:09:42.188Z,25.97
2019-02-27T14:15:00.776Z,26.48
2019-02-27T14:20:26.879Z,26.71
2019-02-27T14:25:43.966Z,26.31
2019-02-27T14:31:02.606Z,25.82
2019-02-27T14:36:21.219Z,26.39
2019-02-27T14:41:47.982Z,26.91
2019-02-27T14:47:04.092Z,26.37
2019-02-27T14:52:22.635Z,25.65
2019-02-27T14:57:41.566Z,26.11
2019-02-27T15:03:00.185Z,25.25
2019-02-27T15:08:19.047Z,26.29
2019-02-27T15:13:37.601Z,25.82
2019-02-27T15:18:56.212Z,26.92
2019-02-27T15:24:14.824Z,27.05
2019-02-27T15:29:33.441Z,28.34
2019-02-27T15:34:52.039Z,26.70
2019-02-27T15:40:14.946Z,29.26
2019-02-27T15:45:33.587Z,29.31
2019-02-27T15:50:56.613Z,27.15
2019-02-27T15:56:13.859Z,28.73
2019-02-27T16:01:33.156Z,26.91
2019-02-27T16:06:51.877Z,28.55
2019-02-27T16:12:10.494Z,27.69
2019-02-27T16:17:31.363Z,28.29
2019-02-27T16:22:49.408Z,29.10
2019-02-27T16:28:11.347Z,28.77
2019-02-27T16:33:28.585Z,30.75
2019-02-27T16:38:47.267Z,32.09
2019-02-27T16:44:07.574Z,31.28
2019-02-27T16:49:26.135Z,32.66
2019-02-27T16:54:50.697Z,32.58
2019-02-27T17:00:08.059Z,35.10
2019-02-27T17:05:26.665Z,36.28
2019-02-27T17:10:45.237Z,36.08
2019-02-27T17:16:03.766Z,40.26
2019-02-27T17:21:26.022Z,39.47
2019-02-27T17:26:46.465Z,43.26
2019-02-27T17:32:06.450Z,43.31
2019-02-27T17:37:26.720Z,43.59
2019-02-27T17:42:46.973Z,43.63
2019-02-27T17:48:05.592Z,45.50
2019-02-27T17:53:24.136Z,47.88
2019-02-27T17:58:50.154Z,45.21
2019-02-27T18:04:08.849Z,49.65
2019-02-27T18:09:27.338Z,50.29
2019-02-27T18:14:47.404Z,49.83
2019-02-27T18:20:08.301Z,50.68
2019-02-27T18:25:26.921Z,51.18
2019-02-27T18:30:45.482Z,51.34
2019-02-27T18:36:04.893Z,52.96
2019-02-27T18:41:24.451Z,54.43
2019-02-27T18:46:43.167Z,55.66
2019-02-27T18:52:06.380Z,55.56
2019-02-27T18:57:22.198Z,55.09
2019-02-27T19:02:40.799Z,55.65
2019-02-27T19:07:59.439Z,56.54
2019-02-27T19:13:18.054Z,57.67
2019-02-27T19:18:38.493Z,58.52
2019-02-27T19:29:10.706Z,59.18
2019-02-27T19:34:29.247Z,60.28
2019-02-27T19:39:47.863Z,60.50
2019-02-27T19:45:08.570Z,59.77
2019-02-27T19:50:38.406Z,60.30
2019-02-27T19:56:01.538Z,61.55
2019-02-27T20:01:20.011Z,62.91
2019-02-27T20:06:38.529Z,62.15
2019-02-27T20:11:57.245Z,63.82
2019-02-27T20:17:21.457Z,63.83
2019-02-27T20:22:40.383Z,63.71
2019-02-27T20:27:59.015Z,62.89
2019-02-27T20:33:22.508Z,64.56
2019-02-27T20:38:42.196Z,64.40
2019-02-27T20:44:03.510Z,64.32
2019-02-27T20:49:21.688Z,65.66
2019-02-27T20:54:41.870Z,66.61
2019-02-27T21:00:02.150Z,67.31
2019-02-27T21:05:23.622Z,69.05
2019-02-27T21:10:43.820Z,69.12
2019-02-27T21:16:04.297Z,67.77
2019-02-27T21:21:22.868Z,69.06
2019-02-27T21:26:41.728Z,70.97
2019-02-27T21:32:01.630Z,70.40
2019-02-27T21:37:23.020Z,69.80
2019-02-27T21:42:41.687Z,72.04
2019-02-27T21:48:00.304Z,72.70
2019-02-27T21:53:18.917Z,73.80
2019-02-27T21:58:37.532Z,74.29
2019-02-27T22:03:56.211Z,75.79
2019-02-27T22:09:19.155Z,76.70
2019-02-27T22:14:35.179Z,77.51
2019-02-27T22:19:54.755Z,77.81
2019-02-27T22:25:13.406Z,77.63
2019-02-27T22:30:32.695Z,77.49
2019-02-27T22:35:55.767Z,78.31
2019-02-27T22:41:11.891Z,79.14
2019-02-27T22:46:30.787Z,79.75
2019-02-27T22:51:49.348Z,78.00
2019-02-27T22:57:07.899Z,77.45
2019-02-27T23:02:26.652Z,79.85
2019-02-27T23:07:45.272Z,81.59
2019-02-27T23:13:03.886Z,81.78
2019-02-27T23:18:22.461Z,80.94
2019-02-27T23:23:41.158Z,82.51
2019-02-27T23:28:59.767Z,81.52
2019-02-27T23:34:18.250Z,81.46
2019-02-27T23:39:39.581Z,81.42
2019-02-27T23:44:57.108Z,82.47
2019-02-27T23:50:15.729Z,83.54
2019-02-27T23:55:34.592Z,82.88
